createdAt,value
2019-05-13T00:02:30.053Z,11.37
2019-05-13T00:05:01.107Z,11.33
2019-05-13T00:07:34.219Z,11.33
2019-05-13T00:10:06.162Z,11.26
2019-05-13T00:12:37.238Z,11.21
2019-05-13T00:15:08.544Z,11.14
2019-05-13T00:17:39.543Z,11.20
2019-05-13T00:20:10.994Z,11.21
2019-05-13T00:22:44.360Z,11.25
2019-05-13T00:25:15.176Z,11.15
2019-05-13T00:27:46.198Z,11.12
2019-05-13T00:30:18.891Z,11.10
2019-05-13T00:32:50.706Z,11.04
2019-05-13T00:35:23.296Z,11.03
2019-05-13T00:37:54.429Z,11.01
2019-05-13T00:40:25.456Z,11.00
2019-05-13T00:42:56.455Z,10.93
2019-05-13T00:45:27.467Z,10.86
2019-05-13T00:47:58.501Z,10.92
2019-05-13T00:50:29.529Z,10.86
2019-05-13T00:53:00.602Z,10.80
2019-05-13T00:55:34.064Z,10.81
2019-05-13T00:58:04.667Z,10.80
2019-05-13T01:00:35.890Z,10.73
2019-05-13T01:03:06.965Z,10.77
2019-05-13T01:05:37.953Z,10.78
2019-05-13T01:08:08.944Z,10.79
2019-05-13T01:10:39.965Z,10.89
2019-05-13T01:13:13.111Z,10.93
2019-05-13T01:15:44.331Z,10.87
2019-05-13T01:18:15.536Z,10.81
2019-05-13T01:20:46.593Z,10.93
2019-05-13T01:23:17.693Z,10.90
2019-05-13T01:25:48.783Z,10.86
2019-05-13T01:28:20.873Z,10.91
2019-05-13T01:30:53.874Z,10.97
2019-05-13T01:33:24.574Z,10.97
2019-05-13T01:35:56.790Z,11.01
2019-05-13T01:38:27.802Z,10.85
2019-05-13T01:40:58.894Z,10.86
2019-05-13T01:43:29.957Z,10.89
2019-05-13T01:46:00.952Z,10.88
2019-05-13T01:48:33.294Z,10.83
2019-05-13T01:51:04.509Z,10.88
2019-05-13T01:53:35.553Z,10.86
2019-05-13T01:56:06.546Z,10.88
2019-05-13T01:58:37.563Z,10.83
2019-05-13T02:01:08.632Z,10.77
2019-05-13T02:03:39.632Z,10.82
2019-05-13T02:06:10.768Z,10.85
2019-05-13T02:08:43.858Z,10.82
2019-05-13T02:11:14.489Z,10.80
2019-05-13T02:13:45.566Z,10.76
2019-05-13T02:16:16.566Z,10.77
2019-05-13T02:18:47.597Z,10.76
2019-05-13T02:21:18.590Z,10.74
2019-05-13T02:23:50.834Z,10.69
2019-05-13T02:26:23.955Z,10.75
2019-05-13T02:28:54.643Z,10.70
2019-05-13T02:31:39.831Z,10.64
2019-05-13T02:33:58.502Z,10.63
2019-05-13T02:36:32.718Z,10.52
2019-05-13T02:39:02.766Z,10.54
2019-05-13T02:41:34.283Z,10.54
2019-05-13T02:44:06.446Z,10.57
2019-05-13T02:46:37.507Z,10.58
2019-05-13T02:49:08.583Z,10.50
2019-05-13T02:51:42.805Z,10.43
2019-05-13T02:54:12.735Z,10.38
2019-05-13T02:56:43.847Z,10.43
2019-05-13T02:59:14.912Z,10.37
2019-05-13T03:01:45.935Z,10.43
2019-05-13T03:04:17.502Z,10.23
2019-05-13T03:06:48.500Z,10.24
2019-05-13T03:09:22.712Z,10.30
2019-05-13T03:11:53.522Z,10.32
2019-05-13T03:14:25.895Z,10.26
2019-05-13T03:17:09.193Z,10.27
2019-05-13T03:19:42.828Z,10.32
2019-05-13T03:22:14.249Z,10.23
2019-05-13T03:24:45.242Z,10.21
2019-05-13T03:27:20.278Z,10.12
2019-05-13T03:29:49.017Z,10.11
2019-05-13T03:32:27.131Z,10.18
2019-05-13T03:34:56.243Z,10.22
2019-05-13T03:37:27.488Z,10.12
2019-05-13T03:39:59.307Z,10.10
2019-05-13T03:42:33.667Z,10.02
2019-05-13T03:45:05.759Z,10.09
2019-05-13T03:47:42.012Z,10.04
2019-05-13T03:50:12.985Z,10.08
2019-05-13T03:52:44.170Z,10.11
2019-05-13T03:55:15.582Z,10.02
2019-05-13T03:57:46.670Z,10.01
2019-05-13T04:00:17.831Z,10.01
2019-05-13T04:02:51.924Z,10.02
2019-05-13T04:05:23.299Z,10.00
2019-05-13T04:07:54.635Z,10.05
2019-05-13T04:10:25.833Z,10.08
2019-05-13T04:12:56.878Z,9.94
2019-05-13T04:15:27.889Z,9.96
2019-05-13T04:18:02.339Z,9.95
2019-05-13T04:20:33.252Z,9.95
2019-05-13T04:23:04.605Z,9.97
2019-05-13T04:25:39.561Z,10.00
2019-05-13T04:28:08.706Z,9.99
2019-05-13T04:30:43.339Z,9.95
2019-05-13T04:33:13.966Z,10.01
2019-05-13T04:35:45.225Z,10.03
2019-05-13T04:38:16.289Z,10.07
2019-05-13T04:40:47.355Z,10.04
2019-05-13T04:43:18.789Z,10.03
2019-05-13T04:45:52.404Z,10.04
2019-05-13T04:48:23.255Z,10.04
2019-05-13T04:50:54.543Z,10.04
2019-05-13T04:53:25.595Z,10.06
2019-05-13T04:55:56.793Z,10.12
2019-05-13T04:58:27.856Z,10.05
2019-05-13T05:01:47.250Z,10.08
2019-05-13T05:04:28.684Z,10.11
2019-05-13T05:07:22.216Z,10.09
2019-05-13T05:10:53.580Z,10.13
2019-05-13T05:14:12.802Z,10.27
2019-05-13T05:17:42.778Z,10.33
2019-05-13T05:20:36.726Z,10.28
2019-05-13T05:23:22.707Z,10.32
2019-05-13T05:26:42.046Z,10.41
2019-05-13T05:29:43.805Z,10.49
2019-05-13T05:32:56.118Z,10.38
2019-05-13T05:36:18.814Z,10.55
2019-05-13T05:39:24.190Z,10.61
2019-05-13T05:41:57.254Z,10.56
2019-05-13T05:44:32.397Z,10.51
2019-05-13T05:47:04.421Z,10.57
2019-05-13T05:49:37.021Z,10.67
2019-05-13T05:52:09.199Z,10.76
2019-05-13T05:54:42.246Z,10.90
2019-05-13T05:57:14.786Z,10.83
2019-05-13T05:59:45.868Z,10.87
2019-05-13T06:02:19.336Z,10.87
2019-05-13T06:04:52.781Z,10.96
2019-05-13T06:07:24.572Z,11.00
2019-05-13T06:09:55.758Z,11.07
2019-05-13T06:12:27.744Z,11.09
2019-05-13T06:15:02.425Z,11.09
2019-05-13T06:17:32.451Z,11.22
2019-05-13T06:20:04.540Z,11.20
2019-05-13T06:22:35.863Z,11.16
2019-05-13T06:25:07.285Z,11.38
2019-05-13T06:27:38.535Z,11.34
2019-05-13T06:30:12.598Z,11.39
2019-05-13T06:32:42.947Z,11.42
2019-05-13T06:35:14.841Z,11.42
2019-05-13T06:37:46.033Z,11.53
2019-05-13T06:40:17.268Z,11.54
2019-05-13T06:42:48.334Z,11.56
2019-05-13T06:45:21.660Z,11.69
2019-05-13T06:47:52.332Z,11.64
2019-05-13T06:50:23.495Z,11.57
2019-05-13T06:52:54.621Z,11.76
2019-05-13T06:55:25.609Z,11.84
2019-05-13T06:57:56.629Z,11.81
2019-05-13T07:00:27.731Z,11.82
2019-05-13T07:02:58.775Z,11.89
2019-05-13T07:05:31.788Z,11.92
2019-05-13T07:08:02.803Z,11.94
2019-05-13T07:10:33.941Z,12.02
2019-05-13T07:13:05.070Z,12.10
2019-05-13T07:15:36.180Z,12.20
2019-05-13T07:18:07.465Z,12.37
2019-05-13T07:20:38.478Z,12.36
2019-05-13T07:23:12.047Z,12.41
2019-05-13T07:25:42.522Z,12.44
2019-05-13T07:28:14.889Z,12.58
2019-05-13T07:30:47.796Z,12.42
2019-05-13T07:33:21.176Z,12.56
2019-05-13T07:35:58.097Z,12.58
2019-05-13T07:38:25.424Z,12.71
2019-05-13T07:41:04.797Z,12.85
2019-05-13T07:43:35.871Z,12.85
2019-05-13T07:46:06.933Z,12.88
2019-05-13T07:48:38.374Z,12.93
2019-05-13T07:51:11.712Z,12.87
2019-05-13T07:53:42.680Z,12.89
2019-05-13T07:56:14.939Z,13.01
2019-05-13T07:58:45.998Z,12.81
2019-05-13T08:01:17.008Z,12.94
2019-05-13T08:03:48.040Z,13.10
2019-05-13T08:06:21.768Z,13.35
2019-05-13T08:08:52.991Z,13.43
2019-05-13T08:11:24.306Z,13.44
2019-05-13T08:13:55.457Z,13.57
2019-05-13T08:16:26.490Z,13.60
2019-05-13T08:18:57.542Z,13.55
2019-05-13T08:21:28.565Z,13.63
2019-05-13T08:24:02.599Z,13.71
2019-05-13T08:26:32.535Z,13.76
2019-05-13T08:29:05.979Z,13.77
2019-05-13T08:31:36.411Z,13.94
2019-05-13T08:34:07.550Z,13.98
2019-05-13T08:36:39.604Z,14.03
2019-05-13T08:39:12.799Z,14.10
2019-05-13T08:41:43.947Z,14.24
2019-05-13T08:44:15.019Z,14.38
2019-05-13T08:46:46.316Z,14.47
2019-05-13T08:49:17.380Z,14.49
2019-05-13T08:51:48.375Z,14.65
2019-05-13T08:54:21.829Z,14.82
2019-05-13T08:56:52.437Z,14.79
2019-05-13T08:59:23.415Z,14.80
2019-05-13T09:01:54.705Z,14.98
2019-05-13T09:04:25.989Z,15.05
2019-05-13T09:06:57.171Z,15.17
2019-05-13T09:09:28.286Z,15.39
2019-05-13T09:12:02.083Z,15.32
2019-05-13T09:14:32.791Z,15.42
2019-05-13T09:17:03.811Z,15.24
2019-05-13T09:19:34.832Z,15.30
2019-05-13T09:22:06.342Z,15.52
2019-05-13T09:24:37.982Z,15.61
2019-05-13T09:27:11.877Z,15.50
2019-05-13T09:29:42.689Z,15.50
2019-05-13T09:32:15.588Z,15.28
2019-05-13T09:34:46.579Z,15.54
2019-05-13T09:37:17.660Z,15.64
2019-05-13T09:39:48.656Z,15.65
2019-05-13T09:42:21.670Z,15.69
2019-05-13T09:44:52.730Z,15.71
2019-05-13T09:47:23.873Z,15.85
2019-05-13T09:49:54.928Z,15.81
2019-05-13T09:52:26.007Z,15.93
2019-05-13T09:54:57.042Z,15.98
2019-05-13T09:57:28.041Z,16.09
2019-05-13T10:00:01.429Z,16.30
2019-05-13T10:02:32.277Z,16.28
2019-05-13T10:05:03.449Z,16.27
2019-05-13T10:07:34.593Z,16.39
2019-05-13T10:10:06.423Z,16.23
2019-05-13T10:12:37.428Z,16.05
2019-05-13T10:15:08.994Z,15.95
2019-05-13T10:17:42.770Z,15.84
2019-05-13T10:20:13.568Z,15.72
2019-05-13T10:22:44.704Z,15.75
2019-05-13T10:25:19.294Z,15.88
2019-05-13T10:27:50.543Z,15.73
2019-05-13T10:30:22.512Z,15.82
2019-05-13T10:32:53.617Z,15.91
2019-05-13T10:35:24.826Z,16.04
2019-05-13T10:37:55.971Z,16.24
2019-05-13T10:40:27.164Z,16.20
2019-05-13T10:42:58.518Z,16.21
2019-05-13T10:45:29.577Z,16.07
2019-05-13T10:48:02.866Z,16.08
2019-05-13T10:50:33.362Z,16.08
2019-05-13T10:53:05.431Z,16.16
2019-05-13T10:55:36.666Z,16.30
2019-05-13T10:58:07.827Z,16.10
2019-05-13T11:00:46.626Z,16.07
2019-05-13T11:03:18.093Z,16.29
2019-05-13T11:05:52.573Z,16.40
2019-05-13T11:08:23.320Z,16.36
2019-05-13T11:10:54.406Z,16.37
2019-05-13T11:13:25.780Z,16.31
2019-05-13T11:15:58.282Z,16.41
2019-05-13T11:18:29.859Z,16.48
2019-05-13T11:21:02.405Z,16.50
2019-05-13T11:23:33.508Z,16.60
2019-05-13T11:26:04.812Z,16.46
2019-05-13T11:28:35.890Z,16.54
2019-05-13T11:31:06.968Z,16.60
2019-05-13T11:33:38.029Z,16.58
2019-05-13T11:36:11.985Z,16.78
2019-05-13T11:38:43.332Z,16.71
2019-05-13T11:41:15.493Z,16.84
2019-05-13T11:43:46.550Z,16.97
2019-05-13T11:46:17.698Z,16.82
2019-05-13T11:48:51.698Z,16.82
2019-05-13T11:51:24.066Z,16.85
2019-05-13T11:53:55.347Z,16.77
2019-05-13T11:56:26.614Z,16.60
2019-05-13T11:58:57.760Z,16.71
2019-05-13T12:01:28.859Z,16.77
2019-05-13T12:04:02.638Z,16.93
2019-05-13T12:06:33.901Z,16.89
2019-05-13T12:09:08.028Z,16.90
2019-05-13T12:11:39.171Z,16.86
2019-05-13T12:14:37.364Z,16.74
2019-05-13T12:16:42.997Z,16.61
2019-05-13T12:19:14.119Z,16.66
2019-05-13T12:21:46.795Z,16.55
2019-05-13T12:24:18.134Z,16.76
2019-05-13T12:26:52.849Z,16.70
2019-05-13T12:29:22.530Z,16.72
2019-05-13T12:31:53.543Z,16.81
2019-05-13T12:34:25.541Z,16.82
2019-05-13T12:36:56.551Z,16.89
2019-05-13T12:39:28.602Z,16.89
2019-05-13T12:42:03.239Z,16.84
2019-05-13T12:44:32.397Z,16.91
2019-05-13T12:47:03.602Z,16.99
2019-05-13T12:49:36.691Z,16.70
2019-05-13T12:52:07.395Z,16.72
2019-05-13T12:54:38.428Z,16.89
2019-05-13T12:57:13.125Z,16.87
2019-05-13T12:59:43.538Z,16.92
2019-05-13T13:02:16.023Z,16.87
2019-05-13T13:05:08.637Z,16.82
2019-05-13T13:07:21.581Z,16.84
2019-05-13T13:09:53.710Z,16.93
2019-05-13T13:12:34.166Z,16.97
2019-05-13T13:14:57.990Z,17.04
2019-05-13T13:17:29.022Z,17.09
2019-05-13T13:22:33.235Z,16.94
2019-05-13T13:25:05.236Z,17.09
2019-05-13T13:28:03.245Z,17.04
2019-05-13T13:30:09.985Z,17.01
2019-05-13T13:32:45.141Z,16.92
2019-05-13T13:35:15.009Z,16.99
2019-05-13T13:37:46.380Z,16.90
2019-05-13T13:40:26.052Z,17.12
2019-05-13T13:42:52.957Z,17.23
2019-05-13T13:45:23.903Z,17.32
2019-05-13T13:48:03.100Z,17.27
2019-05-13T13:50:27.615Z,17.36
2019-05-13T13:52:58.624Z,17.28
2019-05-13T13:55:32.077Z,17.26
2019-05-13T13:58:02.505Z,17.11
2019-05-13T14:00:47.260Z,16.87
2019-05-13T14:03:07.472Z,16.83
2019-05-13T14:05:38.559Z,16.99
2019-05-13T14:07:13.594Z,16.98
2019-05-13T14:08:12.387Z,17.07
2019-05-13T14:10:43.450Z,17.02
2019-05-13T14:13:15.720Z,16.96
2019-05-13T14:15:46.806Z,16.98
2019-05-13T14:18:17.941Z,16.67
2019-05-13T14:20:48.952Z,16.56
2019-05-13T14:23:21.337Z,16.62
2019-05-13T14:25:53.179Z,16.67
2019-05-13T14:28:24.201Z,16.57
2019-05-13T14:30:55.382Z,16.80
2019-05-13T14:33:26.377Z,16.75
2019-05-13T14:35:57.375Z,16.74
2019-05-13T14:38:28.382Z,16.67
2019-05-13T14:41:01.609Z,16.84
2019-05-13T14:43:32.113Z,16.88
2019-05-13T14:46:03.120Z,16.75
2019-05-13T14:48:34.190Z,16.90
2019-05-13T14:51:05.644Z,16.91
2019-05-13T14:53:36.662Z,16.87
2019-05-13T14:56:07.662Z,16.72
2019-05-13T14:58:41.659Z,16.89
2019-05-13T15:01:18.456Z,16.92
2019-05-13T15:03:44.180Z,17.00
2019-05-13T15:06:16.207Z,17.03
2019-05-13T15:08:47.387Z,17.08
2019-05-13T15:11:18.384Z,17.02
2019-05-13T15:13:51.306Z,16.92
2019-05-13T15:16:22.868Z,16.99
2019-05-13T15:18:53.870Z,16.94
2019-05-13T15:21:24.896Z,17.02
2019-05-13T15:23:56.964Z,17.01
2019-05-13T15:26:28.010Z,17.04
2019-05-13T15:29:02.596Z,17.18
2019-05-13T15:31:31.822Z,17.03
2019-05-13T15:34:02.889Z,17.02
2019-05-13T15:36:33.927Z,17.04
2019-05-13T15:39:06.694Z,16.95
2019-05-13T15:41:37.856Z,17.03
2019-05-13T15:44:11.287Z,17.03
2019-05-13T15:46:41.973Z,16.91
2019-05-13T15:49:13.037Z,17.08
2019-05-13T15:51:44.062Z,17.09
2019-05-13T15:54:16.185Z,16.98
2019-05-13T15:56:47.248Z,16.82
2019-05-13T15:59:18.288Z,16.96
2019-05-13T16:01:52.275Z,17.02
2019-05-13T16:04:23.082Z,16.87
2019-05-13T16:06:54.532Z,16.93
2019-05-13T16:09:25.565Z,16.86
2019-05-13T16:11:56.866Z,16.78
2019-05-13T16:14:27.956Z,16.80
2019-05-13T16:16:58.957Z,16.90
2019-05-13T16:19:32.610Z,16.83
2019-05-13T16:22:03.272Z,16.83
2019-05-13T16:24:34.358Z,16.89
2019-05-13T16:27:05.399Z,17.06
2019-05-13T16:29:36.409Z,16.87
2019-05-13T16:32:07.685Z,16.76
2019-05-13T16:34:38.712Z,16.75
2019-05-13T16:37:11.649Z,16.72
2019-05-13T16:39:42.542Z,16.65
2019-05-13T16:42:13.617Z,16.70
2019-05-13T16:44:44.701Z,16.79
2019-05-13T16:47:16.332Z,16.66
2019-05-13T16:49:47.350Z,16.68
2019-05-13T16:52:18.437Z,16.71
2019-05-13T16:54:49.510Z,16.76
2019-05-13T16:57:20.634Z,16.75
2019-05-13T16:59:51.938Z,16.62
2019-05-13T17:02:23.137Z,16.52
2019-05-13T17:04:54.160Z,16.52
2019-05-13T17:07:25.280Z,16.53
2019-05-13T17:09:56.292Z,16.63
2019-05-13T17:12:27.388Z,16.48
2019-05-13T17:14:58.470Z,16.44
2019-05-13T17:17:31.212Z,16.37
2019-05-13T17:20:02.596Z,16.40
2019-05-13T17:22:34.644Z,16.47
2019-05-13T17:25:06.152Z,16.37
2019-05-13T17:27:37.260Z,16.40
2019-05-13T17:30:11.537Z,16.48
2019-05-13T17:32:42.971Z,16.39
2019-05-13T17:35:14.718Z,16.31
2019-05-13T17:37:45.788Z,16.29
2019-05-13T17:40:17.943Z,16.28
2019-05-13T17:42:49.085Z,16.29
2019-05-13T17:45:21.961Z,16.26
2019-05-13T17:47:53.328Z,16.27
2019-05-13T17:50:24.412Z,16.22
2019-05-13T17:52:55.410Z,16.20
2019-05-13T17:55:26.455Z,16.16
2019-05-13T17:57:57.493Z,16.19
2019-05-13T18:00:28.515Z,16.15
2019-05-13T18:03:01.849Z,16.08
2019-05-13T18:05:32.621Z,15.99
2019-05-13T18:08:04.109Z,16.06
2019-05-13T18:10:35.163Z,16.07
2019-05-13T18:13:06.612Z,16.07
2019-05-13T18:15:37.694Z,15.92
2019-05-13T18:18:08.693Z,15.85
2019-05-13T18:20:41.514Z,15.93
2019-05-13T18:23:13.795Z,15.84
2019-05-13T18:25:44.847Z,15.74
2019-05-13T18:28:27.733Z,15.67
2019-05-13T18:30:51.467Z,15.67
2019-05-13T18:33:21.989Z,15.74
2019-05-13T18:35:53.370Z,15.62
2019-05-13T18:38:24.487Z,15.57
2019-05-13T18:40:56.729Z,15.58
2019-05-13T18:43:27.786Z,15.44
2019-05-13T18:46:01.795Z,15.36
2019-05-13T18:48:32.485Z,15.31
2019-05-13T18:51:03.516Z,15.31
2019-05-13T18:53:34.628Z,15.25
2019-05-13T18:56:05.966Z,15.20
2019-05-13T18:58:36.994Z,15.17
2019-05-13T19:01:08.126Z,15.19
2019-05-13T19:03:41.319Z,15.11
2019-05-13T19:06:11.968Z,15.07
2019-05-13T19:08:42.994Z,15.00
2019-05-13T19:11:14.185Z,14.98
2019-05-13T19:13:45.282Z,14.90
2019-05-13T19:16:16.540Z,14.88
2019-05-13T19:18:47.552Z,14.83
2019-05-13T19:21:18.599Z,14.76
2019-05-13T19:23:51.282Z,14.74
2019-05-13T19:26:23.563Z,14.72
2019-05-13T19:28:54.639Z,14.73
2019-05-13T19:31:25.646Z,14.58
2019-05-13T19:33:56.720Z,14.55
2019-05-13T19:36:27.733Z,14.53
2019-05-13T19:38:58.733Z,14.42
2019-05-13T19:41:31.472Z,14.50
2019-05-13T19:44:02.578Z,14.46
2019-05-13T19:46:33.596Z,14.40
2019-05-13T19:49:04.607Z,14.36
2019-05-13T19:51:35.881Z,14.34
2019-05-13T19:54:06.859Z,14.38
2019-05-13T19:56:37.932Z,14.35
2019-05-13T19:59:08.949Z,14.33
2019-05-13T20:01:42.130Z,14.29
2019-05-13T20:04:12.753Z,14.26
2019-05-13T20:06:43.764Z,14.19
2019-05-13T20:09:14.872Z,14.15
2019-05-13T20:11:45.968Z,14.16
2019-05-13T20:14:17.023Z,14.10
2019-05-13T20:16:48.115Z,14.12
2019-05-13T20:19:19.236Z,14.07
2019-05-13T20:21:51.762Z,14.07
2019-05-13T20:24:23.812Z,14.03
2019-05-13T20:26:54.933Z,14.03
2019-05-13T20:29:26.164Z,14.02
2019-05-13T20:31:57.154Z,13.92
2019-05-13T20:34:28.160Z,13.84
2019-05-13T20:36:59.168Z,13.80
2019-05-13T20:39:31.940Z,13.78
2019-05-13T20:42:03.009Z,13.78
2019-05-13T20:44:34.114Z,13.70
2019-05-13T20:47:05.176Z,13.71
2019-05-13T20:49:36.187Z,13.69
2019-05-13T20:52:07.315Z,13.79
2019-05-13T20:54:38.319Z,13.73
2019-05-13T20:57:09.394Z,13.56
2019-05-13T20:59:41.387Z,13.49
2019-05-13T21:02:12.889Z,13.53
2019-05-13T21:04:43.917Z,13.45
2019-05-13T21:07:15.082Z,13.44
2019-05-13T21:09:46.118Z,13.49
2019-05-13T21:12:17.137Z,13.47
2019-05-13T21:14:48.148Z,13.50
2019-05-13T21:17:21.247Z,13.42
2019-05-13T21:19:52.834Z,13.38
2019-05-13T21:22:23.976Z,13.37
2019-05-13T21:24:55.099Z,13.28
2019-05-13T21:27:26.098Z,13.38
2019-05-13T21:29:57.087Z,13.38
2019-05-13T21:32:28.157Z,13.36
2019-05-13T21:35:01.623Z,13.42
2019-05-13T21:37:31.977Z,13.37
2019-05-13T21:40:03.836Z,13.35
2019-05-13T21:42:34.860Z,13.30
2019-05-13T21:45:06.247Z,13.19
2019-05-13T21:47:37.442Z,13.18
2019-05-13T21:50:11.486Z,13.16
2019-05-13T21:52:42.164Z,13.12
2019-05-13T21:55:13.326Z,13.18
2019-05-13T21:57:44.328Z,13.13
2019-05-13T22:00:23.528Z,13.08
2019-05-13T22:02:54.057Z,13.10
2019-05-13T22:05:25.423Z,13.11
2019-05-13T22:07:56.601Z,13.14
2019-05-13T22:10:27.691Z,13.13
2019-05-13T22:13:01.268Z,13.06
2019-05-13T22:15:32.286Z,13.01
2019-05-13T22:18:03.386Z,12.96
2019-05-13T22:20:47.421Z,12.86
2019-05-13T22:23:07.169Z,12.77
2019-05-13T22:25:38.317Z,12.74
2019-05-13T22:28:11.640Z,12.77
2019-05-13T22:30:42.053Z,12.72
2019-05-13T22:33:13.068Z,12.72
2019-05-13T22:35:44.072Z,12.82
2019-05-13T22:38:15.089Z,12.81
2019-05-13T22:40:46.084Z,12.86
2019-05-13T22:43:17.390Z,12.78
2019-05-13T22:45:48.385Z,12.76
2019-05-13T22:48:19.390Z,12.78
2019-05-13T22:50:52.147Z,12.65
2019-05-13T22:53:24.181Z,12.67
2019-05-13T22:55:55.187Z,12.66
2019-05-13T22:58:26.272Z,12.66
2019-05-13T23:00:57.353Z,12.56
2019-05-13T23:03:28.435Z,12.61
2019-05-13T23:06:01.575Z,12.65
2019-05-13T23:08:32.881Z,12.65
2019-05-13T23:11:03.892Z,12.59
2019-05-13T23:13:34.901Z,12.53
2019-05-13T23:16:06.058Z,12.46
2019-05-13T23:18:37.082Z,12.43
2019-05-13T23:21:08.079Z,12.39
2019-05-13T23:23:39.154Z,12.36
2019-05-13T23:26:11.899Z,12.28
2019-05-13T23:28:43.952Z,12.29
2019-05-13T23:31:14.944Z,12.20
2019-05-13T23:33:45.944Z,12.15
2019-05-13T23:36:17.616Z,12.10
2019-05-13T23:38:48.629Z,12.09
2019-05-13T23:41:21.645Z,11.97
2019-05-13T23:43:52.416Z,11.92
2019-05-13T23:46:24.394Z,11.97
2019-05-13T23:49:07.868Z,11.85
2019-05-13T23:51:41.003Z,11.89
2019-05-13T23:54:12.285Z,11.81
2019-05-13T23:56:43.370Z,11.82
2019-05-13T23:59:14.452Z,11.76
